Tuesday, March 19, 2019, 11:21 PM EDT
Back to Local

KBLM, Belmar-farmingdale

Location: Farmingdale, NJ, United States Lat: 40.183
Local Time: 11:21 PM EDT ( 3:21 GMT) Lon: -74.133
Time Zone: US/Eastern Elev: 157 ft

Show me the last for .
Show Decoded

2019-03-19 22:56 METAR KBLM 200256Z AUTO 21004KT 10SM CLR 02/M03 A3043 RMK AO2 SLP311 T00221028
                 51007 FZRANO =
2019-03-19 21:56 METAR KBLM 200156Z AUTO 20004KT 10SM CLR 02/M04 A3043 RMK AO2 SLP310 T00221039
                 FZRANO =
2019-03-19 20:56 METAR KBLM 200056Z AUTO 19004KT 10SM CLR 03/M04 A3042 RMK AO2 SLP309 T00331044 =
2019-03-19 19:56 METAR KBLM 192356Z AUTO 17005KT 10SM CLR 04/M05 A3041 RMK AO2 SLP304 T00391050
                 10089 20039 53005 =
2019-03-19 18:56 METAR KBLM 192256Z AUTO 15007KT 10SM CLR 05/M06 A3040 RMK AO2 SLP300 T00501056 =
2019-03-19 17:56 METAR KBLM 192156Z AUTO 15009KT 10SM SCT080 06/M07 A3039 RMK AO2 SLP296
                 T00611072 =
2019-03-19 16:56 METAR KBLM 192056Z AUTO 14005KT 10SM FEW080 06/M07 A3040 RMK AO2 SLP299
                 T00611072 56009 =
2019-03-19 15:56 METAR KBLM 191956Z AUTO 12010KT 10SM BKN080 08/M06 A3040 RMK AO2 SLP301
                 T00781061 =
2019-03-19 14:56 METAR KBLM 191856Z AUTO VRB05KT 10SM SCT080 07/M06 A3040 RMK AO2 SLP301
                 T00721061 =
2019-03-19 13:56 METAR KBLM 191756Z AUTO 00000KT 10SM OVC070 08/M06 A3042 RMK AO2 SLP309
                 T00781061 10089 21006 58010 =
2019-03-19 12:56 METAR KBLM 191656Z AUTO VRB03KT 10SM CLR 07/M09 A3044 RMK AO2 SLP315 T00721089 =
2019-03-19 11:56 METAR KBLM 191556Z AUTO 29008KT 210V350 10SM CLR 07/M08 A3045 RMK AO2 SLP317
                 T00671078 =
2019-03-19 10:56 METAR KBLM 191456Z AUTO 30006KT 10SM CLR 06/M06 A3045 RMK AO2 SLP318 T00611061
                 50007 =
2019-03-19 09:56 METAR KBLM 191356Z AUTO 33005KT 10SM CLR 04/M07 A3046 RMK AO2 SLP320 T00441067 =
2019-03-19 08:56 METAR KBLM 191256Z AUTO 31003KT 10SM CLR 03/M04 A3046 RMK AO2 SLP318 T00281044 =
2019-03-19 07:56 METAR KBLM 191156Z AUTO 33004KT 10SM CLR M01/M06 A3043 RMK AO2 SLP311 T10061056
                 11006 21033 51019 FZRANO =
2019-03-19 06:56 METAR KBLM 191056Z AUTO 31005KT 10SM CLR M02/M07 A3041 RMK AO2 SLP305 T10221067
                 FZRANO =
2019-03-19 05:56 METAR KBLM 190956Z AUTO 32004KT 10SM SCT080 M02/M06 A3039 RMK AO2 SLP298
                 T10221061 FZRANO =
2019-03-19 04:56 METAR KBLM 190856Z AUTO 31005KT 10SM CLR M02/M06 A3037 RMK AO2 SLP291 T10171056
                 53003 FZRANO =
2019-03-19 03:56 METAR KBLM 190756Z AUTO 28004KT 10SM FEW085 M02/M04 A3036 RMK AO2 SLP286
                 T10221044 FZRANO =
2019-03-19 02:56 METAR KBLM 190656Z AUTO 00000KT 10SM OVC080 M02/M04 A3037 RMK AO2 SLP288
                 T10171044 FZRANO =
2019-03-19 01:56 METAR KBLM 190556Z AUTO 26004KT 10SM CLR M01/M04 A3037 RMK AO2 SLP288 T10111039
                 10033 21017 53007 FZRANO =
2019-03-19 00:56 METAR KBLM 190456Z AUTO 24005KT 10SM CLR M01/M04 A3035 RMK AO2 SLP284 T10061039
                 400781033 FZRANO =
2019-03-18 23:56 METAR KBLM 190356Z AUTO 22006KT 10SM CLR 01/M04 A3035 RMK AO2 SLP284 T00061039
                 FZRANO =

Support USWX by starting your Amazon purchase here.